Time;durP1;ratioP1;P1;durP2;ratioP2;P2;SDS_P1;SDS_P2;PMS_P1;PMS_P2;Temp;Humidity;BMP_temperature;BMP_pressure;BME280_temperature;BME280_humidity;BME280_pressure;Samples;Min_cycle;Max_cycle;Signal;HPM_P1;HPM_P2
2021/02/13 00:01:35;;;;;;;;;10.50;8.75;;;;;-9.15;67.92;101717.06;3725208;38;21673;-57
2021/02/13 00:04:02;;;;;;;;;8.00;6.50;;;;;-9.12;67.72;101722.25;3725210;37;21628;-55
2021/02/13 00:06:31;;;;;;;;;9.00;8.25;;;;;-9.11;71.25;101725.72;3725291;37;21534;-55
2021/02/13 00:08:58;;;;;;;;;9.00;7.00;;;;;-9.16;70.78;101724.94;3725289;37;21634;-57
2021/02/13 00:11:25;;;;;;;;;11.00;9.50;;;;;-9.10;68.90;101732.69;3725439;37;21507;-56
2021/02/13 00:13:53;;;;;;;;;11.00;7.50;;;;;-9.10;67.36;101749.28;3725415;38;21626;-58
2021/02/13 00:16:20;;;;;;;;;8.00;4.50;;;;;-9.10;65.80;101751.06;3725443;38;21530;-56
2021/02/13 00:18:47;;;;;;;;;9.00;9.00;;;;;-9.11;64.85;101728.34;3725325;37;21570;-55
2021/02/13 00:21:13;;;;;;;;;9.00;6.00;;;;;-9.15;63.75;101738.03;3725052;38;21520;-55
2021/02/13 00:23:43;;;;;;;;;9.75;9.75;;;;;-9.16;62.77;101727.56;3725265;38;21564;-56
2021/02/13 00:26:09;;;;;;;;;9.75;6.50;;;;;-9.21;62.53;101729.41;3725182;38;21567;-58
2021/02/13 00:28:36;;;;;;;;;11.00;7.50;;;;;-9.32;61.72;101734.87;3725266;38;21538;-55
2021/02/13 00:31:02;;;;;;;;;9.25;7.50;;;;;-9.44;61.96;101725.50;3725388;38;21622;-55
2021/02/13 00:33:29;;;;;;;;;12.00;9.75;;;;;-9.47;62.18;101735.19;3725377;37;21548;-55
2021/02/13 00:35:55;;;;;;;;;9.75;9.00;;;;;-9.53;61.41;101740.53;3725238;38;21488;-55
2021/02/13 00:38:21;;;;;;;;;10.00;7.00;;;;;-9.60;61.82;101721.44;3725239;38;21504;-56
2021/02/13 00:40:47;;;;;;;;;9.75;6.75;;;;;-9.62;61.93;101730.22;3725339;37;21527;-56
2021/02/13 00:43:15;;;;;;;;;8.50;7.50;;;;;-9.66;61.65;101718.91;3725262;37;21503;-57
2021/02/13 00:45:42;;;;;;;;;10.25;8.50;;;;;-9.69;61.32;101724.22;3725202;38;21537;-56
2021/02/13 00:48:09;;;;;;;;;15.75;10.50;;;;;-9.70;61.02;101719.88;3725237;37;21520;-56
2021/02/13 00:50:36;;;;;;;;;8.00;7.75;;;;;-9.72;60.66;101724.25;3725259;37;21559;-57
2021/02/13 00:53:02;;;;;;;;;9.75;6.75;;;;;-9.73;60.04;101733.88;3725332;38;21551;-56
2021/02/13 00:55:28;;;;;;;;;9.25;9.00;;;;;-9.74;59.53;101728.66;3725247;37;21571;-56
2021/02/13 00:57:57;;;;;;;;;9.00;7.00;;;;;-9.77;59.33;101745.31;3725254;37;21570;-58
2021/02/13 01:00:31;;;;;;;;;7.25;6.00;;;;;-9.79;59.91;101723.50;3724781;37;21465;-56
2021/02/13 01:03:03;;;;;;;;;11.50;9.75;;;;;-9.82;60.17;101728.78;3724879;38;21055;-56
2021/02/13 01:05:31;;;;;;;;;11.50;7.50;;;;;-9.82;59.98;101717.47;3725109;38;21539;-58
2021/02/13 01:07:59;;;;;;;;;12.00;9.25;;;;;-9.85;59.86;101734.09;3725415;37;21495;-55
2021/02/13 01:10:30;;;;;;;;;8.50;5.00;;;;;-9.87;60.31;101714.06;3725395;38;21508;-56
2021/02/13 01:12:58;;;;;;;;;14.00;8.00;;;;;-9.95;60.05;101716.81;3725258;38;21429;-55
2021/02/13 01:15:25;;;;;;;;;9.00;6.50;;;;;-9.89;60.09;101706.25;3725289;37;21479;-56
2021/02/13 01:17:51;;;;;;;;;12.75;11.50;;;;;-9.91;59.73;101713.28;3725343;37;21424;-55
2021/02/13 01:20:23;;;;;;;;;8.00;8.00;;;;;-9.92;59.34;101701.06;3725403;38;21513;-56
2021/02/13 01:22:51;;;;;;;;;3.50;3.50;;;;;-9.89;59.93;101703.63;3725498;38;21446;-55
2021/02/13 01:26:00;;;;;;;;;14.75;10.50;;;;;-9.92;59.32;101701.06;3725223;38;21439;-57
2021/02/13 01:28:28;;;;;;;;;6.50;3.75;;;;;-9.97;60.03;101704.66;3725555;37;21487;-56
2021/02/13 01:30:55;;;;;;;;;13.50;9.00;;;;;-9.96;59.68;101722.97;3725267;37;21439;-56
2021/02/13 01:33:23;;;;;;;;;10.75;9.50;;;;;-9.98;59.31;101711.66;3725308;38;21431;-56
2021/02/13 01:35:50;;;;;;;;;11.00;9.00;;;;;-9.99;59.23;101724.75;3725123;37;21609;-57
2021/02/13 01:38:17;;;;;;;;;8.00;7.00;;;;;-9.97;59.07;101713.38;3725117;37;21492;-57
2021/02/13 01:40:43;;;;;;;;;7.25;6.25;;;;;-9.98;59.15;101710.78;3725209;37;21394;-57
2021/02/13 01:43:10;;;;;;;;;6.50;4.00;;;;;-10.02;59.06;101704.72;3725596;38;21399;-57
2021/02/13 01:45:42;;;;;;;;;9.50;8.50;;;;;-10.07;60.08;101711.78;3725551;37;21423;-59
2021/02/13 01:48:09;;;;;;;;;6.25;6.25;;;;;-10.08;59.86;101704.81;3725625;37;21429;-57
2021/02/13 01:50:38;;;;;;;;;14.25;13.00;;;;;-10.13;59.63;101718.00;3725181;37;21409;-59
2021/02/13 01:53:06;;;;;;;;;10.00;9.75;;;;;-10.16;60.08;101701.47;3725337;38;21431;-57
2021/02/13 01:55:38;;;;;;;;;6.50;6.00;;;;;-10.20;59.86;101708.53;3725278;37;21425;-56
2021/02/13 01:58:05;;;;;;;;;9.50;8.50;;;;;-10.24;59.86;101706.84;3725355;37;21385;-55
2021/02/13 02:00:32;;;;;;;;;6.25;4.00;;;;;-10.20;59.72;101716.38;3725248;37;21404;-56
2021/02/13 02:03:00;;;;;;;;;7.00;5.00;;;;;-10.20;59.71;101711.16;3725412;38;21366;-55
2021/02/13 02:05:27;;;;;;;;;0.75;0.25;;;;;-10.22;60.81;101712.06;3725434;37;21446;-56
2021/02/13 02:07:54;;;;;;;;;8.50;6.00;;;;;-10.23;60.17;101702.47;3725344;38;21360;-55
2021/02/13 02:10:21;;;;;;;;;4.25;3.00;;;;;-10.27;59.86;101703.41;3725353;37;21389;-56
2021/02/13 02:12:49;;;;;;;;;8.00;8.00;;;;;-10.28;60.26;101712.16;3725448;37;21356;-56
2021/02/13 02:15:23;;;;;;;;;6.00;6.00;;;;;-10.31;59.80;101712.22;3725352;37;21256;-56
2021/02/13 02:17:50;;;;;;;;;4.00;4.00;;;;;-10.37;60.59;101700.94;3725396;38;21374;-55
2021/02/13 02:20:17;;;;;;;;;4.75;3.00;;;;;-10.37;59.67;101714.03;3725305;38;21356;-56
2021/02/13 02:22:45;;;;;;;;;6.75;6.25;;;;;-10.37;60.18;101716.66;3725226;37;21341;-56
2021/02/13 02:25:16;;;;;;;;;7.00;5.50;;;;;-10.38;59.14;101721.91;3725302;37;21366;-56
2021/02/13 02:27:45;;;;;;;;;9.50;6.75;;;;;-10.38;60.09;101714.06;3725419;37;21335;-58
2021/02/13 02:30:15;;;;;;;;;3.00;3.00;;;;;-10.43;60.03;101708.06;3725351;38;21169;-56
2021/02/13 02:32:41;;;;;;;;;6.75;6.00;;;;;-10.42;60.05;101715.88;3725308;37;21347;-55
2021/02/13 02:35:10;;;;;;;;;1.50;1.50;;;;;-10.47;59.60;101704.63;3725166;38;21342;-55
2021/02/13 02:37:38;;;;;;;;;11.50;7.00;;;;;-10.51;59.71;101716.00;3725350;38;21351;-56
2021/02/13 02:40:06;;;;;;;;;8.00;6.00;;;;;-10.53;60.13;101717.78;3725361;38;21331;-56
2021/02/13 02:42:33;;;;;;;;;3.25;2.00;;;;;-10.55;60.03;101709.09;3725229;37;21373;-56
2021/02/13 02:44:59;;;;;;;;;7.00;5.50;;;;;-10.60;59.88;101703.06;3725277;38;21322;-55
2021/02/13 02:47:25;;;;;;;;;5.00;3.25;;;;;-10.61;59.88;101703.09;3725538;37;21336;-56
2021/02/13 02:49:52;;;;;;;;;5.00;4.25;;;;;-10.62;60.27;101706.59;3725476;37;21313;-56
2021/02/13 02:52:20;;;;;;;;;2.50;2.50;;;;;-10.66;60.37;101708.37;3725391;38;21309;-56
2021/02/13 02:54:47;;;;;;;;;1.50;1.50;;;;;-10.66;60.13;101718.84;3725406;37;21306;-60
2021/02/13 02:57:15;;;;;;;;;1.00;1.00;;;;;-10.74;60.46;101700.63;3725506;38;21276;-56
2021/02/13 02:59:42;;;;;;;;;3.25;3.25;;;;;-10.71;61.15;101715.41;3725339;37;21292;-57
2021/02/13 03:02:09;;;;;;;;;3.00;3.00;;;;;-10.75;61.22;101717.22;3725295;37;21311;-55
2021/02/13 03:04:35;;;;;;;;;6.75;3.00;;;;;-10.79;61.07;101719.88;3725298;37;21322;-55
2021/02/13 03:07:04;;;;;;;;;4.00;1.50;;;;;-10.81;61.83;101719.91;3725330;37;21289;-55
2021/02/13 03:09:31;;;;;;;;;3.00;3.00;;;;;-10.87;62.01;101720.00;3725264;37;21284;-55
2021/02/13 03:11:57;;;;;;;;;6.00;4.00;;;;;-10.87;61.86;101729.59;3725253;38;21309;-55
2021/02/13 03:14:24;;;;;;;;;5.50;3.50;;;;;-10.87;62.43;101716.50;3725335;38;21300;-56
2021/02/13 03:16:56;;;;;;;;;5.50;3.00;;;;;-10.88;62.42;101720.88;3725436;37;21297;-55
2021/02/13 03:19:22;;;;;;;;;14.00;12.50;;;;;-10.92;62.70;101720.97;3725608;37;21270;-55
2021/02/13 03:21:49;;;;;;;;;12.25;10.50;;;;;-10.90;62.84;101729.63;3725441;38;21407;-56
2021/02/13 03:24:22;;;;;;;;;14.25;10.75;;;;;-10.94;63.02;101722.72;3725342;37;21328;-56
2021/02/13 03:26:49;;;;;;;;;6.75;6.00;;;;;-10.93;62.90;101724.47;3725575;38;21353;-56
2021/02/13 03:29:17;;;;;;;;;4.00;3.00;;;;;-10.92;62.89;101721.81;3725413;38;21292;-55
2021/02/13 03:31:44;;;;;;;;;6.25;3.50;;;;;-10.92;63.57;101729.66;3725273;38;21282;-56
2021/02/13 03:34:11;;;;;;;;;3.75;3.00;;;;;-10.95;63.31;101724.47;3725285;37;21251;-55
2021/02/13 03:36:39;;;;;;;;;3.00;3.00;;;;;-10.98;63.18;101727.12;3725730;38;21241;-55
2021/02/13 03:39:05;;;;;;;;;6.25;4.00;;;;;-10.94;63.15;101730.56;3725363;38;21251;-56
2021/02/13 03:41:32;;;;;;;;;3.50;3.50;;;;;-11.05;63.11;101723.72;3725341;37;21241;-55
2021/02/13 03:43:58;;;;;;;;;3.00;1.50;;;;;-11.07;63.21;101722.88;3725417;38;21269;-55
2021/02/13 03:46:24;;;;;;;;;3.50;3.00;;;;;-11.06;63.25;101735.06;3725559;37;21233;-55
2021/02/13 03:48:50;;;;;;;;;13.00;12.00;;;;;-11.06;63.17;101723.75;3725449;37;21236;-57
2021/02/13 03:51:16;;;;;;;;;6.75;6.00;;;;;-11.06;63.20;101729.84;3725404;37;21335;-57
2021/02/13 03:53:42;;;;;;;;;7.00;6.00;;;;;-11.21;63.43;101696.03;3725409;37;21232;-56
2021/02/13 03:56:09;;;;;;;;;3.00;3.00;;;;;-11.08;63.47;101721.16;3725376;38;21244;-56
2021/02/13 03:58:40;;;;;;;;;5.50;4.00;;;;;-11.02;63.53;101719.34;3725445;38;21226;-56
2021/02/13 04:01:06;;;;;;;;;3.00;3.00;;;;;-11.05;63.42;101717.63;3725006;37;21166;-57
2021/02/13 04:03:32;;;;;;;;;3.25;3.25;;;;;-11.08;62.61;101718.53;3725351;37;21244;-56
2021/02/13 04:05:59;;;;;;;;;2.75;1.00;;;;;-11.07;62.60;101708.94;3728264;38;21244;-56
2021/02/13 04:08:25;;;;;;;;;6.75;4.50;;;;;-11.04;62.65;101715.00;3726380;38;21198;-57
2021/02/13 04:10:52;;;;;;;;;3.25;2.00;;;;;-11.00;62.10;101709.75;3726719;38;21208;-55
2021/02/13 04:13:18;;;;;;;;;2.50;2.50;;;;;-10.97;61.67;101710.56;3726104;38;21054;-58
2021/02/13 04:15:45;;;;;;;;;1.00;1.00;;;;;-10.95;61.55;101711.41;3726474;38;21202;-58
2021/02/13 04:18:11;;;;;;;;;3.00;2.00;;;;;-10.86;61.37;101715.63;3726673;37;21198;-55
2021/02/13 04:20:37;;;;;;;;;3.00;3.00;;;;;-10.79;60.14;101739.06;3725741;37;21223;-56
2021/02/13 04:23:04;;;;;;;;;4.00;3.50;;;;;-10.72;59.10;101713.69;3725220;38;21331;-56
2021/02/13 04:25:30;;;;;;;;;3.00;3.00;;;;;-10.55;56.73;101724.78;3725280;38;21192;-56
2021/02/13 04:27:56;;;;;;;;;0.00;0.00;;;;;-10.42;56.31;101718.50;3725312;38;21209;-55
2021/02/13 04:30:23;;;;;;;;;3.50;1.50;;;;;-10.31;55.26;101706.97;3725429;38;21206;-56
2021/02/13 04:32:49;;;;;;;;;2.00;0.00;;;;;-10.17;54.00;101704.97;3725528;37;21199;-56
2021/02/13 04:35:16;;;;;;;;;1.00;1.00;;;;;-10.13;53.91;101707.53;3725368;38;21166;-57
2021/02/13 04:37:42;;;;;;;;;2.00;1.00;;;;;-10.07;53.00;101717.91;3725605;38;21165;-56
2021/02/13 04:40:09;;;;;;;;;3.75;1.00;;;;;-10.00;52.72;101723.91;3725494;37;21170;-56
2021/02/13 04:42:35;;;;;;;;;1.00;0.00;;;;;-10.02;54.08;101712.59;3725382;37;21172;-55
2021/02/13 04:45:03;;;;;;;;;1.00;0.00;;;;;-10.02;52.57;101713.44;3725282;37;21159;-56
2021/02/13 04:47:29;;;;;;;;;0.75;0.50;;;;;-9.95;52.29;101722.06;3725485;38;21155;-55
2021/02/13 04:49:55;;;;;;;;;0.00;0.00;;;;;-9.96;52.34;101720.34;3725468;37;21166;-55
2021/02/13 04:52:21;;;;;;;;;1.00;0.00;;;;;-10.02;53.55;101720.44;3725524;38;21115;-55
2021/02/13 04:54:48;;;;;;;;;0.50;0.50;;;;;-10.04;53.47;101722.22;3725169;37;21167;-56
2021/02/13 04:57:28;;;;;;;;;1.00;1.00;;;;;-10.10;53.62;101711.84;3725314;37;21165;-57
2021/02/13 04:59:59;;;;;;;;;0.50;0.00;;;;;-10.03;53.41;101716.09;3725308;38;21127;-56
2021/02/13 05:02:26;;;;;;;;;3.00;0.25;;;;;-10.04;53.13;101719.59;3725288;37;21126;-55
2021/02/13 05:04:55;;;;;;;;;1.00;1.00;;;;;-10.06;53.86;101719.62;3725309;37;21126;-56
2021/02/13 05:07:22;;;;;;;;;0.75;0.75;;;;;-10.09;53.64;101724.03;3725304;38;21126;-55
2021/02/13 05:09:48;;;;;;;;;3.00;2.00;;;;;-10.13;53.02;101717.13;3725367;37;21140;-55
2021/02/13 05:12:14;;;;;;;;;1.00;1.00;;;;;-10.17;54.15;101731.16;3725194;37;21129;-56
2021/02/13 05:14:40;;;;;;;;;2.00;1.00;;;;;-10.08;52.89;101728.37;3725436;37;21195;-56
2021/02/13 05:17:06;;;;;;;;;2.75;2.50;;;;;-10.06;53.50;101724.84;3725277;37;21106;-56
2021/02/13 05:19:32;;;;;;;;;1.00;1.00;;;;;-10.05;53.29;101723.09;3725417;38;21100;-56
2021/02/13 05:21:59;;;;;;;;;5.50;1.50;;;;;-10.05;53.41;101736.19;3725382;37;21114;-56
2021/02/13 05:24:25;;;;;;;;;9.25;6.50;;;;;-10.07;54.58;101738.84;3725279;37;21102;-55
2021/02/13 05:26:51;;;;;;;;;3.25;0.75;;;;;-10.05;54.22;101736.19;3725383;37;21104;-56
2021/02/13 05:29:18;;;;;;;;;0.50;0.00;;;;;-10.06;53.19;101731.84;3725522;38;21091;-60
2021/02/13 05:31:44;;;;;;;;;4.00;3.50;;;;;-10.00;53.77;101729.13;3725397;38;21117;-57
2021/02/13 05:34:11;;;;;;;;;1.50;1.50;;;;;-10.00;52.98;101725.66;3725492;38;21108;-56
2021/02/13 05:36:37;;;;;;;;;2.50;2.00;;;;;-9.95;52.56;101732.53;3725832;38;21081;-56
2021/02/13 05:39:09;;;;;;;;;3.00;2.00;;;;;-9.91;52.80;101731.59;3727584;37;21094;-56
2021/02/13 05:41:38;;;;;;;;;4.00;1.50;;;;;-9.83;51.96;101728.81;3739527;38;21089;-58
2021/02/13 05:44:09;;;;;;;;;3.00;3.00;;;;;-9.83;52.49;101740.16;3726029;38;21088;-56
2021/02/13 05:46:36;;;;;;;;;3.50;3.50;;;;;-9.85;53.75;101735.84;3725383;38;21094;-56
2021/02/13 05:49:07;;;;;;;;;4.00;3.00;;;;;-9.83;53.09;101736.69;3725483;37;21091;-56
2021/02/13 05:51:39;;;;;;;;;10.00;4.50;;;;;-9.81;53.34;101737.53;3725465;37;21077;-56
2021/02/13 05:54:09;;;;;;;;;0.25;0.00;;;;;-9.88;53.03;101717.59;3725486;38;21106;-56
2021/02/13 05:56:37;;;;;;;;;3.50;3.00;;;;;-9.74;53.75;101733.91;3725604;37;21069;-55
2021/02/13 05:59:04;;;;;;;;;3.25;3.00;;;;;-9.71;53.57;101741.72;3725363;37;21067;-55
2021/02/13 06:01:31;;;;;;;;;3.00;3.00;;;;;-9.64;53.83;101729.38;3725439;38;21079;-55
2021/02/13 06:03:58;;;;;;;;;2.50;1.00;;;;;-9.57;53.61;101733.62;3725354;38;21063;-56
2021/02/13 06:06:25;;;;;;;;;2.00;1.00;;;;;-9.51;52.30;101739.59;3725450;37;21067;-55
2021/02/13 06:08:57;;;;;;;;;3.75;3.00;;;;;-9.46;51.24;101740.41;3725288;38;21031;-55
2021/02/13 06:11:25;;;;;;;;;2.00;2.00;;;;;-9.40;51.67;101739.41;3725352;38;21067;-55
2021/02/13 06:13:52;;;;;;;;;4.00;1.00;;;;;-9.29;50.34;101734.81;3725343;38;21029;-56
2021/02/13 06:16:19;;;;;;;;;4.00;3.00;;;;;-9.30;50.61;101716.47;3725523;37;21030;-55
2021/02/13 06:18:47;;;;;;;;;4.00;3.75;;;;;-9.15;50.49;101743.28;3725422;38;21027;-55
2021/02/13 06:21:16;;;;;;;;;3.00;1.00;;;;;-9.12;49.65;101743.22;3725483;37;21008;-55
2021/02/13 06:23:50;;;;;;;;;3.00;3.00;;;;;-9.07;49.72;101738.75;3725374;38;21028;-56
2021/02/13 06:26:17;;;;;;;;;8.00;4.00;;;;;-9.01;50.13;101753.50;3725376;38;21021;-53
2021/02/13 06:28:45;;;;;;;;;6.00;4.50;;;;;-8.97;49.17;101757.78;3725234;37;21151;-56
2021/02/13 06:31:12;;;;;;;;;4.00;3.25;;;;;-8.88;49.14;101747.12;3725446;38;21021;-56
2021/02/13 06:33:41;;;;;;;;;4.00;3.50;;;;;-8.88;48.09;101759.37;3725423;38;21046;-53
2021/02/13 06:36:08;;;;;;;;;11.75;8.75;;;;;-8.86;48.64;101754.94;3725481;37;21041;-55
2021/02/13 06:38:35;;;;;;;;;3.00;1.00;;;;;-8.83;48.03;101763.59;3725321;37;21091;-55
2021/02/13 06:41:11;;;;;;;;;2.00;1.50;;;;;-8.81;48.27;101763.56;3725296;37;20995;-56
2021/02/13 06:43:39;;;;;;;;;6.25;4.00;;;;;-8.76;47.79;101761.69;3725365;37;21008;-56
2021/02/13 06:46:07;;;;;;;;;7.00;3.25;;;;;-8.66;48.32;101763.25;3725338;37;20997;-58
2021/02/13 06:48:40;;;;;;;;;3.00;1.00;;;;;-8.60;49.27;101750.00;3724687;37;21012;-57
2021/02/13 06:51:11;;;;;;;;;2.00;2.00;;;;;-8.53;47.23;101754.22;3724718;38;20999;-59
2021/02/13 06:53:42;;;;;;;;;3.75;3.75;;;;;-8.53;48.36;101759.47;3724799;38;20995;-56
2021/02/13 06:56:13;;;;;;;;;4.50;4.00;;;;;-8.39;47.81;101753.91;3724542;37;20978;-54
2021/02/13 06:58:41;;;;;;;;;1.00;1.00;;;;;-8.31;46.46;101761.56;3724388;38;20997;-57
2021/02/13 07:01:39;;;;;;;;;1.00;1.00;;;;;-8.26;46.45;101755.31;3724468;38;20979;-59
2021/02/13 07:04:09;;;;;;;;;4.50;4.00;;;;;-8.33;45.74;101781.78;3724888;38;20994;-62
2021/02/13 07:06:47;;;;;;;;;3.75;3.75;;;;;-8.21;45.20;101760.44;3725120;37;20956;-57
2021/02/13 07:09:13;;;;;;;;;2.50;2.50;;;;;-8.16;44.27;101795.34;3725014;38;20849;-54
2021/02/13 07:11:40;;;;;;;;;3.00;3.00;;;;;-8.16;44.19;101775.19;3725081;37;21064;-56
2021/02/13 07:14:10;;;;;;;;;6.75;3.00;;;;;-8.11;44.25;101794.34;3725085;37;20981;-55
2021/02/13 07:16:38;;;;;;;;;0.00;0.00;;;;;-8.12;43.93;101765.50;3725586;38;20948;-55
2021/02/13 07:19:15;;;;;;;;;3.25;0.00;;;;;-8.14;44.04;101786.53;3725606;38;20966;-58
2021/02/13 07:22:01;;;;;;;;;3.00;2.00;;;;;-8.10;43.04;101785.56;3725843;38;20956;-58
2021/02/13 07:24:28;;;;;;;;;1.50;1.00;;;;;-8.07;43.30;101769.75;3725914;38;20966;-57
2021/02/13 07:27:14;;;;;;;;;1.00;0.50;;;;;-8.07;43.60;101819.66;3725975;37;20965;-58
2021/02/13 07:29:41;;;;;;;;;2.50;2.00;;;;;-8.03;43.12;101833.56;3725849;37;20940;-57
2021/02/13 07:32:24;;;;;;;;;0.50;0.50;;;;;-7.98;43.37;101768.66;3725900;37;20931;-56
2021/02/13 07:34:51;;;;;;;;;4.50;3.00;;;;;-8.03;42.51;101809.94;3725172;38;20946;-57
2021/02/13 07:37:19;;;;;;;;;4.50;3.00;;;;;-8.03;43.32;101815.19;3725354;38;20925;-56
2021/02/13 07:39:50;;;;;;;;;6.50;1.50;;;;;-8.02;42.56;101775.75;3725630;37;20932;-57
2021/02/13 07:42:28;;;;;;;;;2.50;2.50;;;;;-7.97;43.30;101772.16;3725640;38;20932;-55
2021/02/13 07:45:04;;;;;;;;;3.00;2.50;;;;;-7.81;42.56;101786.66;3725575;38;20937;-62
2021/02/13 07:47:35;;;;;;;;;1.00;1.00;;;;;-7.77;42.63;101765.50;3725330;38;20923;-60
2021/02/13 07:50:13;;;;;;;;;4.50;3.00;;;;;-7.75;41.82;101782.09;3725696;38;20931;-61
2021/02/13 07:52:46;;;;;;;;;7.50;7.00;;;;;-7.75;42.29;101782.09;3725843;37;20914;-61
2021/02/13 07:55:27;;;;;;;;;7.00;4.00;;;;;-7.73;42.85;101792.56;3727098;38;20931;-62
2021/02/13 07:58:02;;;;;;;;;4.50;3.00;;;;;-7.69;41.09;101779.31;3740331;38;20897;-61
2021/02/13 08:00:34;;;;;;;;;1.50;1.00;;;;;-7.61;42.11;101781.75;3726057;38;20922;-61
2021/02/13 08:03:15;;;;;;;;;3.00;3.00;;;;;-7.69;42.23;101810.84;3725726;38;20902;-62
2021/02/13 08:05:50;;;;;;;;;3.75;1.00;;;;;-7.72;41.41;101808.28;3725817;37;20913;-60
2021/02/13 08:08:30;;;;;;;;;7.00;3.00;;;;;-7.64;40.44;101805.47;3725605;38;20885;-61
2021/02/13 08:11:35;;;;;;;;;0.00;0.00;;;;;-7.69;42.76;101784.56;3725737;37;20898;-62
2021/02/13 08:14:02;;;;;;;;;3.00;1.50;;;;;-7.64;44.28;101762.56;3725431;37;20870;-61
2021/02/13 08:16:30;;;;;;;;;1.00;0.00;;;;;-7.57;41.31;101769.37;3725758;38;20890;-59
2021/02/13 08:19:07;;;;;;;;;1.00;1.00;;;;;-7.58;41.07;101800.06;3725341;37;20884;-57
2021/02/13 08:21:42;;;;;;;;;0.75;0.00;;;;;-7.59;41.26;101761.53;3724818;37;20879;-59
2021/02/13 08:24:16;;;;;;;;;0.50;0.50;;;;;-7.50;41.96;101813.03;3725720;38;20866;-57
2021/02/13 08:26:47;;;;;;;;;0.75;0.00;;;;;-7.48;40.12;101784.94;3725019;37;20895;-57
2021/02/13 08:29:21;;;;;;;;;2.00;0.75;;;;;-7.54;41.19;101795.59;3724971;37;20865;-57
2021/02/13 08:31:58;;;;;;;;;1.00;0.00;;;;;-7.44;41.17;101823.37;3724692;38;20865;-59
2021/02/13 08:34:28;;;;;;;;;6.50;3.50;;;;;-7.38;41.86;101776.78;3725176;38;20832;-57
2021/02/13 08:37:08;;;;;;;;;6.25;3.00;;;;;-7.32;40.15;101757.34;3725398;37;20860;-59
2021/02/13 08:39:44;;;;;;;;;3.00;1.00;;;;;-7.38;40.61;101778.53;3725436;37;20871;-65
2021/02/13 08:42:10;;;;;;;;;3.25;3.25;;;;;-7.33;40.92;101776.66;3725373;38;20846;-58
2021/02/13 08:44:44;;;;;;;;;4.50;4.00;;;;;-7.31;40.19;101774.84;3725474;38;20536;-59
2021/02/13 08:47:18;;;;;;;;;3.00;3.00;;;;;-7.12;40.16;101793.59;3725272;37;20825;-57
2021/02/13 08:50:13;;;;;;;;;4.00;3.50;;;;;-7.10;39.28;101836.53;3725081;38;20820;-59
2021/02/13 08:52:39;;;;;;;;;3.25;1.00;;;;;-7.18;39.77;101768.31;3725594;38;20837;-59
2021/02/13 08:55:11;;;;;;;;;1.50;1.50;;;;;-7.08;39.86;101777.69;3725391;38;20829;-59
2021/02/13 08:57:42;;;;;;;;;3.00;3.00;;;;;-7.13;38.38;101812.91;3725687;37;20828;-59
2021/02/13 09:00:11;;;;;;;;;5.50;4.00;;;;;-7.24;40.72;101779.00;3725553;37;20831;-59
2021/02/13 09:02:37;;;;;;;;;3.00;2.50;;;;;-7.15;40.45;101799.81;3725599;37;20807;-59
2021/02/13 09:05:05;;;;;;;;;2.50;2.50;;;;;-6.97;40.49;101830.03;3725595;37;20827;-58
2021/02/13 09:07:32;;;;;;;;;1.00;0.25;;;;;-7.04;40.33;101815.31;3725164;37;20794;-59
2021/02/13 09:10:00;;;;;;;;;2.75;2.50;;;;;-7.05;39.05;101824.97;3724959;37;20808;-61
2021/02/13 09:12:40;;;;;;;;;2.00;2.00;;;;;-7.17;40.11;101806.87;3725201;38;20821;-62
2021/02/13 09:15:21;;;;;;;;;3.00;1.50;;;;;-7.11;38.85;101811.12;3725592;37;20803;-58
2021/02/13 09:17:52;;;;;;;;;3.50;1.00;;;;;-7.21;39.03;101813.13;3725820;37;20789;-57
2021/02/13 09:20:24;;;;;;;;;1.00;1.00;;;;;-7.03;40.11;101798.63;3725668;37;20825;-60
2021/02/13 09:22:53;;;;;;;;;6.00;3.50;;;;;-7.07;41.20;101808.38;3725571;37;20807;-59
2021/02/13 09:25:21;;;;;;;;;4.50;3.75;;;;;-7.08;41.46;101825.06;3725695;38;20819;-60
2021/02/13 09:27:48;;;;;;;;;3.00;1.00;;;;;-7.10;41.81;101829.50;3725845;37;20799;-59
2021/02/13 09:30:17;;;;;;;;;2.00;1.50;;;;;-6.91;41.71;101816.72;3725771;38;20794;-61
2021/02/13 09:32:43;;;;;;;;;1.00;0.00;;;;;-6.93;41.66;101823.78;3725673;38;20902;-59
2021/02/13 09:35:12;;;;;;;;;3.75;3.00;;;;;-6.82;41.45;101819.09;3725461;37;20789;-59
2021/02/13 09:37:40;;;;;;;;;1.00;1.00;;;;;-6.84;40.57;101806.87;3725568;37;20871;-60
2021/02/13 09:40:18;;;;;;;;;2.00;2.00;;;;;-6.86;41.63;101840.28;3725673;37;20764;-58
2021/02/13 09:43:05;;;;;;;;;1.50;1.00;;;;;-6.76;40.98;101807.53;3725496;37;20757;-59
2021/02/13 09:45:35;;;;;;;;;3.25;2.50;;;;;-6.64;41.55;101803.66;3725588;37;20764;-59
2021/02/13 09:48:10;;;;;;;;;3.00;1.00;;;;;-6.67;41.81;101818.62;3725684;38;20782;-59
2021/02/13 09:50:37;;;;;;;;;1.50;1.00;;;;;-6.43;41.54;101824.13;3725797;38;20765;-59
2021/02/13 09:53:04;;;;;;;;;1.00;1.00;;;;;-6.48;41.44;101878.69;3725798;38;20735;-58
2021/02/13 09:55:30;;;;;;;;;1.00;1.00;;;;;-6.53;41.00;101854.25;3725420;37;20759;-58
2021/02/13 09:58:09;;;;;;;;;4.00;4.00;;;;;-6.46;40.46;101832.09;3725642;37;20744;-58
2021/02/13 10:00:36;;;;;;;;;3.75;3.75;;;;;-6.42;40.51;101818.81;3725890;38;20760;-58
2021/02/13 10:03:20;;;;;;;;;4.00;3.50;;;;;-6.47;40.24;101830.37;3725853;37;20751;-59
2021/02/13 10:06:03;;;;;;;;;0.00;0.00;;;;;-6.62;39.34;101807.97;3725535;37;20749;-59
2021/02/13 10:08:32;;;;;;;;;1.00;1.00;;;;;-6.50;40.96;101812.87;3725779;37;20715;-62
2021/02/13 10:10:59;;;;;;;;;3.75;1.00;;;;;-6.41;40.71;101888.16;3726705;37;20755;-58
2021/02/13 10:13:58;;;;;;;;;2.00;1.00;;;;;-6.36;40.61;101852.88;3727952;37;20731;-58
2021/02/13 10:16:58;;;;;;;;;0.00;0.00;;;;;-6.44;40.80;101877.69;3739368;37;20710;-58
2021/02/13 10:19:28;;;;;;;;;0.75;0.75;;;;;-6.36;41.25;101825.66;3726108;37;20726;-57
2021/02/13 10:22:04;;;;;;;;;0.50;0.50;;;;;-6.26;41.42;101842.06;3725789;37;20705;-57
2021/02/13 10:24:32;;;;;;;;;1.00;1.00;;;;;-6.12;41.88;101831.94;3725626;37;20707;-60
2021/02/13 10:27:09;;;;;;;;;2.50;1.00;;;;;-6.12;40.36;101821.41;3726159;37;20714;-59
2021/02/13 10:30:15;;;;;;;;;1.50;1.00;;;;;-6.06;40.22;101843.16;3726272;38;20689;-59
2021/02/13 10:32:42;;;;;;;;;0.75;0.50;;;;;-6.06;40.99;101845.81;3725822;37;20713;-60
2021/02/13 10:35:09;;;;;;;;;1.00;0.75;;;;;-6.18;40.69;101846.16;3725809;38;20701;-58
2021/02/13 10:37:36;;;;;;;;;2.00;2.00;;;;;-6.17;40.22;101839.12;3725927;37;20685;-57
2021/02/13 10:40:08;;;;;;;;;5.00;1.00;;;;;-6.09;40.93;101847.66;3725850;38;20707;-58
2021/02/13 10:43:06;;;;;;;;;1.00;0.00;;;;;-6.01;40.51;101870.25;3725742;37;20691;-56
2021/02/13 10:46:00;;;;;;;;;1.00;1.00;;;;;-5.91;40.76;101833.06;3725759;38;20692;-58
2021/02/13 10:48:47;;;;;;;;;0.00;0.00;;;;;-6.06;41.07;101851.06;3725988;37;20710;-61
2021/02/13 10:51:40;;;;;;;;;1.00;1.00;;;;;-6.01;39.82;101832.50;3725938;37;20668;-59
2021/02/13 10:54:20;;;;;;;;;2.50;2.50;;;;;-5.92;40.56;101852.44;3725742;37;20703;-59
2021/02/13 10:56:55;;;;;;;;;1.00;1.00;;;;;-5.83;40.85;101823.13;3725842;37;20656;-61
2021/02/13 10:59:23;;;;;;;;;2.25;0.00;;;;;-5.74;40.89;101836.87;3725897;37;20689;-60
2021/02/13 11:01:54;;;;;;;;;1.00;1.00;;;;;-5.71;41.32;101823.56;3725850;38;20655;-60
2021/02/13 11:04:49;;;;;;;;;0.75;0.00;;;;;-5.60;39.82;101819.72;3725774;37;20657;-61
2021/02/13 11:07:33;;;;;;;;;1.00;1.00;;;;;-5.73;39.72;101835.09;3725834;37;20664;-60
2021/02/13 11:10:01;;;;;;;;;1.00;1.00;;;;;-5.79;41.04;101851.09;3725686;38;20641;-62
2021/02/13 11:12:39;;;;;;;;;3.00;3.00;;;;;-5.82;39.60;101878.44;3725270;38;20644;-59
2021/02/13 11:15:30;;;;;;;;;4.00;1.00;;;;;-5.87;40.04;101832.91;3725400;37;20628;-59
2021/02/13 11:18:29;;;;;;;;;2.50;1.00;;;;;-5.84;38.62;101855.66;3725516;38;20669;-59
2021/02/13 11:21:33;;;;;;;;;3.00;3.00;;;;;-5.86;40.20;101853.06;3726091;38;20637;-60
2021/02/13 11:24:37;;;;;;;;;3.00;2.00;;;;;-5.68;38.12;101838.41;3727316;37;20661;-63
2021/02/13 11:27:28;;;;;;;;;1.00;1.00;;;;;-5.73;38.17;101907.16;3728683;38;20634;-61
2021/02/13 11:30:33;;;;;;;;;1.00;1.00;;;;;-5.75;38.88;101861.50;3727768;38;20655;-61
2021/02/13 11:33:17;;;;;;;;;3.00;1.00;;;;;-5.62;38.72;101827.69;3728357;38;21603;-60
2021/02/13 11:35:58;;;;;;;;;7.00;2.50;;;;;-5.42;39.18;101840.22;3729275;38;21627;-60
2021/02/13 11:38:32;;;;;;;;;3.75;3.00;;;;;-5.72;39.22;101845.56;3726356;37;21623;-60
2021/02/13 11:41:18;;;;;;;;;6.50;4.00;;;;;-5.68;39.80;101847.19;3726048;38;21425;-61